Aviation Digital Data Service (ADDS)

Output produced by METARs form (0141 UTC 14 February 2016)
found at http://aviationweather.gov/adds/metars/
 
KLGA 132340Z 1400/1424 32021G33KT P6SM SCT060 
     FM140500 32019G26KT P6SM SKC 
     FM141100 32016G23KT P6SM SKC 
     FM141600 32013G20KT P6SM SKC 
     FM142000 31010KT P6SM SKC